createdAt,value
2023-03-03T00:00:28.638Z,-4.77
2023-03-03T00:02:34.138Z,-4.84
2023-03-03T00:04:39.841Z,-4.93
2023-03-03T00:06:45.346Z,-5
2023-03-03T00:08:50.771Z,-4.99
2023-03-03T00:10:56.219Z,-4.96
2023-03-03T00:13:01.479Z,-4.89
2023-03-03T00:15:06.780Z,-4.9
2023-03-03T00:17:11.756Z,-4.89
2023-03-03T00:19:17.690Z,-4.83
2023-03-03T00:21:23.222Z,-4.8
2023-03-03T00:23:28.659Z,-4.77
2023-03-03T00:25:34.758Z,-4.73
2023-03-03T00:27:40.289Z,-4.73
2023-03-03T00:29:45.694Z,-4.71
2023-03-03T00:31:51.135Z,-4.75
2023-03-03T00:33:57.005Z,-4.82
2023-03-03T00:36:02.502Z,-4.86
2023-03-03T00:38:07.936Z,-4.8
2023-03-03T00:40:13.080Z,-4.79
2023-03-03T00:42:18.476Z,-4.83
2023-03-03T00:44:23.742Z,-4.89
2023-03-03T00:46:29.598Z,-4.99
2023-03-03T00:48:35.592Z,-5.03
2023-03-03T00:50:41.197Z,-5.1
2023-03-03T00:52:46.729Z,-5.09
2023-03-03T00:54:51.903Z,-5.06
2023-03-03T00:56:57.247Z,-4.95
2023-03-03T00:59:02.663Z,-4.9
2023-03-03T01:01:07.970Z,-4.86
2023-03-03T01:03:13.370Z,-4.86
2023-03-03T01:05:18.632Z,-4.86
2023-03-03T01:07:24.123Z,-4.85
2023-03-03T01:09:29.664Z,-4.85
2023-03-03T01:11:35.360Z,-4.86
2023-03-03T01:13:40.758Z,-4.87
2023-03-03T01:15:46.858Z,-4.83
2023-03-03T01:17:52.348Z,-4.83
2023-03-03T01:19:57.562Z,-4.83
2023-03-03T01:22:03.099Z,-4.84
2023-03-03T01:24:08.502Z,-4.85
2023-03-03T01:26:13.959Z,-4.86
2023-03-03T01:28:19.355Z,-4.84
2023-03-03T01:30:24.642Z,-4.82
2023-03-03T01:32:30.123Z,-4.83
2023-03-03T01:34:36.038Z,-4.84
2023-03-03T01:36:41.609Z,-4.8
2023-03-03T01:38:47.405Z,-4.81
2023-03-03T01:40:52.955Z,-4.83
2023-03-03T01:42:58.340Z,-4.86
2023-03-03T01:45:03.536Z,-4.87
2023-03-03T01:47:09.079Z,-4.89
2023-03-03T01:49:14.572Z,-4.91
2023-03-03T01:51:19.841Z,-4.83
2023-03-03T01:53:25.294Z,-4.83
2023-03-03T01:55:30.843Z,-4.81
2023-03-03T01:57:36.117Z,-4.82
2023-03-03T01:59:42.160Z,-4.85
2023-03-03T02:01:47.693Z,-4.93
2023-03-03T02:03:53.391Z,-4.99
2023-03-03T02:05:58.929Z,-5.09
2023-03-03T02:08:04.407Z,-5.2
2023-03-03T02:10:10.192Z,-5.27
2023-03-03T02:12:15.537Z,-5.23
2023-03-03T02:14:20.975Z,-5.31
2023-03-03T02:16:26.324Z,-5.37
2023-03-03T02:18:32.245Z,-5.34
2023-03-03T02:20:37.402Z,-5.36
2023-03-03T02:22:43.058Z,-5.28
2023-03-03T02:24:48.342Z,-5.16
2023-03-03T02:26:53.748Z,-5.11
2023-03-03T02:28:59.165Z,-5.03
2023-03-03T02:31:04.667Z,-5
2023-03-03T02:33:10.341Z,-5
2023-03-03T02:35:15.581Z,-5.04
2023-03-03T02:37:21.184Z,-5.03
2023-03-03T02:39:26.475Z,-5.02
2023-03-03T02:41:31.859Z,-5.02
2023-03-03T02:43:37.083Z,-5.04
2023-03-03T02:45:42.471Z,-5.06
2023-03-03T02:47:47.997Z,-5.06
2023-03-03T02:49:53.642Z,-5.08
2023-03-03T02:51:59.302Z,-5.07
2023-03-03T02:54:04.497Z,-5.13
2023-03-03T02:56:10.168Z,-5.2
2023-03-03T02:58:15.460Z,-5.21
2023-03-03T03:00:21.211Z,-5.13
2023-03-03T03:02:26.530Z,-5.06
2023-03-03T03:04:31.878Z,-4.99
2023-03-03T03:06:37.332Z,-4.96
2023-03-03T03:08:42.692Z,-4.89
2023-03-03T03:10:48.113Z,-4.86
2023-03-03T03:12:53.503Z,-4.87
2023-03-03T03:14:58.937Z,-4.9
2023-03-03T03:17:04.624Z,-4.94
2023-03-03T03:19:10.064Z,-4.93
2023-03-03T03:21:15.668Z,-4.93
2023-03-03T03:23:20.953Z,-4.88
2023-03-03T03:25:26.794Z,-4.86
2023-03-03T03:27:32.268Z,-4.9
2023-03-03T03:29:37.534Z,-4.9
2023-03-03T03:31:42.975Z,-4.9
2023-03-03T03:33:48.790Z,-4.94
2023-03-03T03:35:54.402Z,-5
2023-03-03T03:38:00.134Z,-5
2023-03-03T03:40:05.541Z,-5.03
2023-03-03T03:42:10.963Z,-5.04
2023-03-03T03:44:16.213Z,-5.06
2023-03-03T03:46:21.566Z,-5.05
2023-03-03T03:48:27.265Z,-5.06
2023-03-03T03:50:36.353Z,-5.06
2023-03-03T03:52:41.745Z,-5.03
2023-03-03T03:54:47.217Z,-5.03
2023-03-03T03:56:52.795Z,-5.04
2023-03-03T03:58:57.934Z,-5.05
2023-03-03T04:01:03.895Z,-5.07
2023-03-03T04:03:09.668Z,-5.13
2023-03-03T04:05:15.469Z,-5.13
2023-03-03T04:07:21.071Z,-5.16
2023-03-03T04:09:26.698Z,-5.15
2023-03-03T04:11:32.195Z,-5.17
2023-03-03T04:13:37.664Z,-5.2
2023-03-03T04:15:42.948Z,-5.22
2023-03-03T04:17:48.558Z,-5.14
2023-03-03T04:19:53.862Z,-5.16
2023-03-03T04:21:59.549Z,-5.05
2023-03-03T04:24:05.653Z,-5.07
2023-03-03T04:26:11.233Z,-5.1
2023-03-03T04:28:16.470Z,-5.09
2023-03-03T04:30:22.312Z,-5.05
2023-03-03T04:32:27.762Z,-5.01
2023-03-03T04:34:33.692Z,-4.95
2023-03-03T04:36:38.987Z,-4.98
2023-03-03T04:38:44.546Z,-5.08
2023-03-03T04:40:49.886Z,-5.16
2023-03-03T04:42:55.120Z,-5.15
2023-03-03T04:45:00.292Z,-5.04
2023-03-03T04:47:05.656Z,-5.04
2023-03-03T04:49:12.527Z,-5.03
2023-03-03T04:51:18.143Z,-5.06
2023-03-03T04:53:23.747Z,-5.01
2023-03-03T04:55:29.154Z,-5
2023-03-03T04:57:34.575Z,-4.84
2023-03-03T04:59:40.049Z,-4.73
2023-03-03T05:01:45.696Z,-4.75
2023-03-03T05:03:51.236Z,-4.68
2023-03-03T05:05:56.751Z,-4.69
2023-03-03T05:08:02.073Z,-4.74
2023-03-03T05:10:07.908Z,-4.75
2023-03-03T05:12:13.423Z,-4.76
2023-03-03T05:14:18.520Z,-4.82
2023-03-03T05:16:24.512Z,-4.82
2023-03-03T05:18:29.967Z,-4.78
2023-03-03T05:20:36.638Z,-4.78
2023-03-03T05:22:42.075Z,-4.8
2023-03-03T05:24:47.459Z,-4.85
2023-03-03T05:26:52.937Z,-4.84
2023-03-03T05:28:58.277Z,-4.87
2023-03-03T05:31:03.827Z,-4.83
2023-03-03T05:33:09.503Z,-4.83
2023-03-03T05:35:15.939Z,-4.89
2023-03-03T05:37:21.563Z,-4.91
2023-03-03T05:39:27.090Z,-4.86
2023-03-03T05:41:32.686Z,-4.9
2023-03-03T05:43:38.231Z,-4.9
2023-03-03T05:45:43.812Z,-4.89
2023-03-03T05:47:49.222Z,-4.88
2023-03-03T05:49:57.726Z,-4.85
2023-03-03T05:52:03.271Z,-4.79
2023-03-03T05:54:08.503Z,-4.72
2023-03-03T05:56:14.170Z,-4.61
2023-03-03T05:58:19.437Z,-4.54
2023-03-03T06:00:25.029Z,-4.51
2023-03-03T06:02:30.330Z,-4.35
2023-03-03T06:04:35.894Z,-4.21
2023-03-03T06:06:41.811Z,-3.98
2023-03-03T06:08:47.980Z,-3.76
2023-03-03T06:10:54.257Z,-3.58
2023-03-03T06:13:00.159Z,-3.43
2023-03-03T06:15:05.946Z,-3.23
2023-03-03T06:17:12.700Z,-3.04
2023-03-03T06:19:18.153Z,-2.86
2023-03-03T06:21:23.440Z,-2.69
2023-03-03T06:23:29.303Z,-2.48
2023-03-03T06:25:34.773Z,-2.27
2023-03-03T06:27:40.336Z,-2.12
2023-03-03T06:29:46.117Z,-2.12
2023-03-03T06:31:51.842Z,-2.13
2023-03-03T06:33:58.031Z,-2.04
2023-03-03T06:36:05.699Z,-1.88
2023-03-03T06:38:11.567Z,-1.81
2023-03-03T06:40:17.111Z,-1.67
2023-03-03T06:42:23.046Z,-1.66
2023-03-03T06:44:29.244Z,-1.62
2023-03-03T06:46:35.263Z,-1.56
2023-03-03T06:48:40.561Z,-1.54
2023-03-03T06:50:46.293Z,-1.52
2023-03-03T06:52:52.540Z,-1.45
2023-03-03T06:54:58.231Z,-1.34
2023-03-03T06:57:03.746Z,-1.18
2023-03-03T06:59:09.607Z,-1.25
2023-03-03T07:01:15.530Z,-1.05
2023-03-03T07:03:22.065Z,-1
2023-03-03T07:05:27.568Z,-1.04
2023-03-03T07:07:33.936Z,-1.13
2023-03-03T07:09:42.759Z,-1.14
2023-03-03T07:11:49.247Z,-1.21
2023-03-03T07:13:55.229Z,-1.24
2023-03-03T07:16:00.955Z,-1.23
2023-03-03T07:18:06.432Z,-1.22
2023-03-03T07:20:12.065Z,-1.22
2023-03-03T07:22:17.401Z,-1.25
2023-03-03T07:24:23.737Z,-1.22
2023-03-03T07:26:29.616Z,-1.17
2023-03-03T07:28:35.636Z,-1.06
2023-03-03T07:30:41.113Z,-0.92
2023-03-03T07:32:48.279Z,-0.87
2023-03-03T07:34:53.870Z,-0.81
2023-03-03T07:36:59.409Z,-0.77
2023-03-03T07:39:05.076Z,-0.67
2023-03-03T07:41:10.496Z,-0.52
2023-03-03T07:43:16.145Z,-0.46
2023-03-03T07:45:22.238Z,-0.46
2023-03-03T07:47:28.038Z,-0.51
2023-03-03T07:49:34.852Z,-0.56
2023-03-03T07:51:40.896Z,-0.51
2023-03-03T07:53:46.636Z,-0.45
2023-03-03T07:55:52.195Z,-0.48
2023-03-03T07:57:59.265Z,-0.39
2023-03-03T08:00:08.188Z,-0.35
2023-03-03T08:02:13.493Z,-0.34
2023-03-03T08:04:19.439Z,-0.32
2023-03-03T08:06:25.931Z,-0.27
2023-03-03T08:08:32.668Z,-0.24
2023-03-03T08:10:38.415Z,-0.17
2023-03-03T08:12:47.048Z,-0.05
2023-03-03T08:14:52.440Z,-0.02
2023-03-03T08:17:00.546Z,-0.05
2023-03-03T08:19:06.970Z,-0.06
2023-03-03T08:21:12.368Z,-0.13
2023-03-03T08:23:17.986Z,-0.12
2023-03-03T08:25:24.748Z,-0.06
2023-03-03T08:27:30.931Z,-0.09
2023-03-03T08:29:37.117Z,-0.07
2023-03-03T08:31:43.011Z,0.07
2023-03-03T08:33:49.454Z,0.22
2023-03-03T08:35:54.970Z,0.26
2023-03-03T08:38:01.141Z,0.45
2023-03-03T08:40:07.661Z,0.6
2023-03-03T08:42:16.417Z,0.66
2023-03-03T08:44:22.421Z,0.61
2023-03-03T08:46:32.378Z,0.67
2023-03-03T08:48:39.464Z,0.56
2023-03-03T08:50:44.846Z,0.69
2023-03-03T08:52:50.561Z,0.61
2023-03-03T08:54:55.941Z,0.59
2023-03-03T08:57:01.668Z,0.59
2023-03-03T08:59:07.650Z,0.7
2023-03-03T09:01:13.293Z,0.81
2023-03-03T09:03:19.410Z,0.74
2023-03-03T09:05:24.859Z,0.76
2023-03-03T09:07:30.378Z,0.86
2023-03-03T09:09:35.698Z,0.87
2023-03-03T09:11:41.134Z,0.79
2023-03-03T09:13:46.989Z,0.96
2023-03-03T09:15:52.491Z,1.24
2023-03-03T09:17:58.278Z,1.58
2023-03-03T09:20:03.900Z,1.58
2023-03-03T09:22:09.397Z,1.57
2023-03-03T09:24:14.846Z,1.52
2023-03-03T09:26:20.360Z,1.43
2023-03-03T09:28:25.899Z,1.15
2023-03-03T09:30:31.629Z,1.18
2023-03-03T09:32:37.314Z,1.02
2023-03-03T09:34:43.249Z,1.01
2023-03-03T09:36:48.496Z,0.99
2023-03-03T09:38:54.179Z,0.97
2023-03-03T09:40:59.372Z,0.93
2023-03-03T09:43:04.931Z,0.98
2023-03-03T09:45:10.457Z,0.96
2023-03-03T09:47:16.036Z,1.05
2023-03-03T09:49:26.484Z,0.93
2023-03-03T09:51:32.242Z,0.99
2023-03-03T09:53:37.536Z,1.15
2023-03-03T09:55:43.294Z,1.1
2023-03-03T09:57:53.632Z,1.15
2023-03-03T10:00:14.987Z,1.24
2023-03-03T10:02:21.297Z,1.34
2023-03-03T10:04:27.122Z,1.29
2023-03-03T10:06:32.567Z,1.34
2023-03-03T10:08:38.158Z,1.46
2023-03-03T10:10:43.748Z,1.46
2023-03-03T10:12:49.133Z,1.59
2023-03-03T10:14:55.739Z,1.49
2023-03-03T10:17:01.277Z,1.53
2023-03-03T10:19:06.946Z,1.73
2023-03-03T10:21:12.511Z,1.81
2023-03-03T10:23:18.057Z,1.79
2023-03-03T10:25:24.066Z,1.75
2023-03-03T10:27:30.164Z,1.66
2023-03-03T10:29:36.038Z,1.61
2023-03-03T10:31:42.597Z,1.64
2023-03-03T10:33:48.332Z,1.61
2023-03-03T10:36:06.431Z,1.51
2023-03-03T10:38:13.883Z,1.58
2023-03-03T10:40:19.440Z,1.39
2023-03-03T10:42:25.058Z,1.48
2023-03-03T10:44:30.688Z,1.35
2023-03-03T10:46:36.913Z,1.49
2023-03-03T10:48:42.919Z,1.63
2023-03-03T10:50:48.455Z,1.65
2023-03-03T10:52:54.436Z,1.56
2023-03-03T10:55:00.098Z,1.51
2023-03-03T10:57:05.629Z,1.7
2023-03-03T10:59:11.140Z,1.69
2023-03-03T11:01:16.923Z,1.46
2023-03-03T11:03:26.040Z,1.4
2023-03-03T11:05:31.557Z,1.34
2023-03-03T11:07:36.933Z,1.41
2023-03-03T11:09:42.589Z,1.5
2023-03-03T11:11:48.677Z,1.47
2023-03-03T11:13:55.762Z,1.37
2023-03-03T11:16:02.344Z,1.25
2023-03-03T11:18:08.332Z,1.42
2023-03-03T11:20:13.852Z,1.25
2023-03-03T11:22:19.138Z,1.18
2023-03-03T11:24:25.297Z,1.07
2023-03-03T11:26:30.965Z,0.88
2023-03-03T11:28:36.873Z,0.85
2023-03-03T11:30:44.060Z,0.76
2023-03-03T11:32:49.912Z,0.62
2023-03-03T11:34:55.481Z,0.57
2023-03-03T11:37:01.151Z,0.68
2023-03-03T11:39:07.318Z,0.69
2023-03-03T11:41:16.528Z,0.73
2023-03-03T11:43:35.578Z,0.83
2023-03-03T11:45:42.813Z,0.78
2023-03-03T11:47:48.878Z,0.76
2023-03-03T11:49:55.101Z,0.76
2023-03-03T11:52:01.039Z,0.73
2023-03-03T11:54:07.103Z,0.75
2023-03-03T11:56:13.093Z,0.86
2023-03-03T11:58:18.980Z,0.86
2023-03-03T12:00:25.301Z,0.8
2023-03-03T12:02:31.333Z,0.69
2023-03-03T12:04:38.189Z,0.54
2023-03-03T12:06:47.758Z,0.44
2023-03-03T12:08:54.460Z,0.57
2023-03-03T12:11:01.369Z,0.45
2023-03-03T12:13:07.227Z,0.44
2023-03-03T12:15:12.477Z,0.49
2023-03-03T12:17:17.865Z,0.6
2023-03-03T12:19:23.196Z,0.62
2023-03-03T12:21:29.632Z,0.52
2023-03-03T12:23:35.306Z,0.48
2023-03-03T12:25:40.884Z,0.52
2023-03-03T12:27:46.775Z,0.44
2023-03-03T12:29:52.844Z,0.39
2023-03-03T12:31:59.038Z,0.33
2023-03-03T12:34:06.759Z,0.3
2023-03-03T12:36:13.291Z,0.21
2023-03-03T12:38:20.052Z,0.25
2023-03-03T12:40:26.765Z,0.21
2023-03-03T12:42:32.703Z,0.13
2023-03-03T12:44:38.713Z,0.15
2023-03-03T12:46:46.098Z,0.19
2023-03-03T12:48:51.462Z,0.28
2023-03-03T12:50:57.116Z,0.28
2023-03-03T12:53:09.797Z,0.25
2023-03-03T12:55:15.865Z,0.26
2023-03-03T12:57:23.459Z,0.29
2023-03-03T12:59:29.738Z,0.2
2023-03-03T13:01:35.498Z,0.23
2023-03-03T13:03:54.840Z,0.21
2023-03-03T13:06:01.679Z,0.04
2023-03-03T13:08:08.093Z,0.07
2023-03-03T13:10:14.487Z,0.11
2023-03-03T13:12:23.544Z,0.12
2023-03-03T13:14:30.464Z,0.12
2023-03-03T13:16:41.260Z,0.14
2023-03-03T13:18:48.031Z,0.1
2023-03-03T13:20:53.643Z,-0.05
2023-03-03T13:22:59.436Z,-0.07
2023-03-03T13:25:05.104Z,-0.02
2023-03-03T13:27:10.922Z,0.03
2023-03-03T13:29:17.473Z,-0.11
2023-03-03T13:31:23.948Z,-0.15
2023-03-03T13:33:31.014Z,-0.08
2023-03-03T13:35:36.899Z,-0.15
2023-03-03T13:37:42.960Z,-0.09
2023-03-03T13:39:49.254Z,-0.12
2023-03-03T13:41:55.198Z,-0.13
2023-03-03T13:44:01.244Z,-0.18
2023-03-03T13:46:07.050Z,-0.26
2023-03-03T13:48:13.377Z,-0.34
2023-03-03T13:50:19.469Z,-0.37
2023-03-03T13:52:26.878Z,-0.39
2023-03-03T13:54:33.347Z,-0.41
2023-03-03T13:56:39.448Z,-0.34
2023-03-03T13:58:45.352Z,-0.37
2023-03-03T14:00:51.217Z,-0.38
2023-03-03T14:02:57.818Z,-0.4
2023-03-03T14:05:04.750Z,-0.43
2023-03-03T14:07:11.576Z,-0.52
2023-03-03T14:09:18.508Z,-0.5
2023-03-03T14:11:25.037Z,-0.53
2023-03-03T14:13:31.301Z,-0.44
2023-03-03T14:15:37.966Z,-0.44
2023-03-03T14:17:44.931Z,-0.46
2023-03-03T14:19:51.300Z,-0.5
2023-03-03T14:21:57.947Z,-0.49
2023-03-03T14:24:04.316Z,-0.48
2023-03-03T14:26:11.039Z,-0.54
2023-03-03T14:28:17.275Z,-0.6
2023-03-03T14:30:24.645Z,-0.52
2023-03-03T14:32:44.677Z,-0.52
2023-03-03T14:34:52.064Z,-0.52
2023-03-03T14:36:58.479Z,-0.57
2023-03-03T14:39:04.991Z,-0.6
2023-03-03T14:41:11.191Z,-0.65
2023-03-03T14:43:17.842Z,-0.61
2023-03-03T14:45:29.708Z,-0.65
2023-03-03T14:47:36.953Z,-0.66
2023-03-03T14:49:44.044Z,-0.7
2023-03-03T14:51:49.909Z,-0.74
2023-03-03T14:53:56.535Z,-0.69
2023-03-03T14:56:02.553Z,-0.69
2023-03-03T14:58:09.024Z,-0.67
2023-03-03T15:00:15.904Z,-0.65
2023-03-03T15:02:22.845Z,-0.69
2023-03-03T15:04:28.949Z,-0.76
2023-03-03T15:06:36.195Z,-0.79
2023-03-03T15:08:43.174Z,-0.8
2023-03-03T15:10:49.865Z,-0.82
2023-03-03T15:12:56.641Z,-0.81
2023-03-03T15:15:03.663Z,-0.75
2023-03-03T15:17:13.296Z,-0.77
2023-03-03T15:19:20.861Z,-0.77
2023-03-03T15:21:27.714Z,-0.75
2023-03-03T15:23:34.513Z,-0.76
2023-03-03T15:25:43.578Z,-0.72
2023-03-03T15:28:01.159Z,-0.78
2023-03-03T15:30:08.277Z,-0.76
2023-03-03T15:32:14.211Z,-0.75
2023-03-03T15:34:21.111Z,-0.75
2023-03-03T15:36:28.014Z,-0.73
2023-03-03T15:38:34.569Z,-0.74
2023-03-03T15:40:40.401Z,-0.77
2023-03-03T15:42:47.413Z,-0.73
2023-03-03T15:44:54.136Z,-0.74
2023-03-03T15:47:01.615Z,-0.73
2023-03-03T15:49:11.337Z,-0.76
2023-03-03T15:51:18.229Z,-0.79
2023-03-03T15:53:25.031Z,-0.77
2023-03-03T15:55:32.278Z,-0.8
2023-03-03T15:57:39.747Z,-0.86
2023-03-03T15:59:47.276Z,-0.89
2023-03-03T16:01:53.935Z,-0.89
2023-03-03T16:04:01.990Z,-0.89
2023-03-03T16:06:10.782Z,-0.86
2023-03-03T16:08:17.234Z,-0.86
2023-03-03T16:10:24.110Z,-0.86
2023-03-03T16:12:31.276Z,-0.82
2023-03-03T16:14:37.485Z,-0.88
2023-03-03T16:16:43.924Z,-0.87
2023-03-03T16:18:52.475Z,-0.81
2023-03-03T16:21:04.790Z,-0.83
2023-03-03T16:23:11.234Z,-0.83
2023-03-03T16:25:17.489Z,-0.81
2023-03-03T16:27:24.769Z,-0.85
2023-03-03T16:29:31.792Z,-0.84
2023-03-03T16:31:38.763Z,-0.89
2023-03-03T16:33:46.628Z,-0.87
2023-03-03T16:35:53.355Z,-0.83
2023-03-03T16:38:00.156Z,-0.87
2023-03-03T16:40:06.897Z,-0.87
2023-03-03T16:42:14.109Z,-0.86
2023-03-03T16:44:22.071Z,-0.87
2023-03-03T16:46:29.830Z,-0.91
2023-03-03T16:48:37.717Z,-0.91
2023-03-03T16:50:45.607Z,-0.93
2023-03-03T16:52:53.934Z,-0.89
2023-03-03T16:55:01.390Z,-0.87
2023-03-03T16:57:07.776Z,-0.9
2023-03-03T16:59:17.513Z,-0.91
2023-03-03T17:01:24.921Z,-0.89
2023-03-03T17:03:34.742Z,-0.87
2023-03-03T17:05:43.999Z,-0.87
2023-03-03T17:07:51.151Z,-0.86
2023-03-03T17:10:02.279Z,-0.82
2023-03-03T17:12:11.036Z,-0.84
2023-03-03T17:14:18.191Z,-0.84
2023-03-03T17:16:25.606Z,-0.8
2023-03-03T17:18:45.625Z,-0.83
2023-03-03T17:20:53.067Z,-0.83
2023-03-03T17:23:00.709Z,-0.83
2023-03-03T17:25:10.180Z,-0.92
2023-03-03T17:27:17.548Z,-0.88
2023-03-03T17:29:24.352Z,-0.86
2023-03-03T17:31:31.257Z,-0.82
2023-03-03T17:33:39.317Z,-0.83
2023-03-03T17:35:47.618Z,-0.84
2023-03-03T17:37:55.935Z,-0.85
2023-03-03T17:40:04.647Z,-0.86
2023-03-03T17:42:12.723Z,-0.81
2023-03-03T17:44:24.250Z,-0.82
2023-03-03T17:46:33.687Z,-0.83
2023-03-03T17:48:42.332Z,-0.82
2023-03-03T17:50:49.481Z,-0.82
2023-03-03T17:52:57.059Z,-0.78
2023-03-03T17:55:04.973Z,-0.78
2023-03-03T17:57:12.905Z,-0.74
2023-03-03T17:59:21.791Z,-0.78
2023-03-03T18:01:29.782Z,-0.79
2023-03-03T18:03:38.547Z,-0.8
2023-03-03T18:05:47.242Z,-0.84
2023-03-03T18:07:56.182Z,-0.81
2023-03-03T18:10:04.603Z,-0.81
2023-03-03T18:12:15.050Z,-0.86
2023-03-03T18:14:26.924Z,-0.85
2023-03-03T18:16:37.996Z,-0.86
2023-03-03T18:18:47.908Z,-0.85
2023-03-03T18:20:57.236Z,-0.83
2023-03-03T18:23:06.487Z,-0.83
2023-03-03T18:25:17.552Z,-0.83
2023-03-03T18:27:25.176Z,-0.84
2023-03-03T18:29:35.697Z,-0.83
2023-03-03T18:31:46.802Z,-0.82
2023-03-03T18:33:55.900Z,-0.83
2023-03-03T18:36:06.345Z,-0.77
2023-03-03T18:38:14.900Z,-0.81
2023-03-03T18:40:26.433Z,-0.8
2023-03-03T18:42:36.836Z,-0.8
2023-03-03T18:44:52.416Z,-0.83
2023-03-03T18:47:02.597Z,-0.83
2023-03-03T18:49:15.453Z,-0.8
2023-03-03T18:51:29.061Z,-0.82
2023-03-03T18:53:36.898Z,-0.81
2023-03-03T18:55:48.355Z,-0.77
2023-03-03T18:58:00.072Z,-0.77
2023-03-03T19:00:08.429Z,-0.76
2023-03-03T19:02:18.387Z,-0.77
2023-03-03T19:04:27.722Z,-0.71
2023-03-03T19:06:38.041Z,-0.72
2023-03-03T19:08:46.352Z,-0.73
2023-03-03T19:10:55.966Z,-0.76
2023-03-03T19:13:05.574Z,-0.72
2023-03-03T19:15:14.030Z,-0.68
2023-03-03T19:17:25.143Z,-0.74
2023-03-03T19:19:34.021Z,-0.66
2023-03-03T19:21:48.065Z,-0.66
2023-03-03T19:23:56.755Z,-0.66
2023-03-03T19:26:05.233Z,-0.66
2023-03-03T19:28:17.924Z,-0.63
2023-03-03T19:30:31.377Z,-0.63
2023-03-03T19:32:42.478Z,-0.6
2023-03-03T19:35:07.973Z,-0.62
2023-03-03T19:37:20.664Z,-0.57
2023-03-03T19:39:30.468Z,-0.56
2023-03-03T19:41:39.939Z,-0.62
2023-03-03T19:43:51.492Z,-0.59
2023-03-03T19:46:02.378Z,-0.59
2023-03-03T19:48:16.317Z,-0.58
2023-03-03T19:50:29.870Z,-0.57
2023-03-03T19:52:41.084Z,-0.57
2023-03-03T19:54:50.912Z,-0.55
2023-03-03T19:56:59.633Z,-0.52
2023-03-03T19:59:10.279Z,-0.51
2023-03-03T20:01:24.555Z,-0.51
2023-03-03T20:03:34.805Z,-0.49
2023-03-03T20:05:44.849Z,-0.49
2023-03-03T20:08:02.696Z,-0.48
2023-03-03T20:10:13.187Z,-0.44
2023-03-03T20:12:22.222Z,-0.47
2023-03-03T20:14:31.039Z,-0.48
2023-03-03T20:16:41.965Z,-0.49
2023-03-03T20:19:02.494Z,-0.48
2023-03-03T20:21:13.344Z,-0.49
2023-03-03T20:23:22.613Z,-0.5
2023-03-03T20:25:33.362Z,-0.48
2023-03-03T20:27:44.769Z,-0.45
2023-03-03T20:29:54.641Z,-0.44
2023-03-03T20:32:08.465Z,-0.46
2023-03-03T20:34:20.593Z,-0.49
2023-03-03T20:36:36.917Z,-0.49
2023-03-03T20:38:46.369Z,-0.46
2023-03-03T20:40:57.658Z,-0.46
2023-03-03T20:43:08.773Z,-0.44
2023-03-03T20:45:20.327Z,-0.45
2023-03-03T20:47:30.052Z,-0.44
2023-03-03T20:49:39.481Z,-0.43
2023-03-03T20:51:49.858Z,-0.43
2023-03-03T20:54:06.446Z,-0.46
2023-03-03T20:56:17.545Z,-0.49
2023-03-03T20:58:29.207Z,-0.44
2023-03-03T21:00:38.276Z,-0.46
2023-03-03T21:02:46.710Z,-0.44
2023-03-03T21:04:58.136Z,-0.42
2023-03-03T21:07:10.110Z,-0.44
2023-03-03T21:09:22.158Z,-0.39
2023-03-03T21:11:29.110Z,-0.38
2023-03-03T21:13:36.691Z,-0.39
2023-03-03T21:15:48.069Z,-0.39
2023-03-03T21:17:58.204Z,-0.4
2023-03-03T21:20:08.732Z,-0.38
2023-03-03T21:22:17.795Z,-0.34
2023-03-03T21:24:27.682Z,-0.34
2023-03-03T21:26:35.109Z,-0.34
2023-03-03T21:28:42.902Z,-0.34
2023-03-03T21:30:49.196Z,-0.34
2023-03-03T21:32:56.296Z,-0.35
2023-03-03T21:35:04.678Z,-0.33
2023-03-03T21:37:14.783Z,-0.32
2023-03-03T21:39:21.328Z,-0.32
2023-03-03T21:41:29.285Z,-0.28
2023-03-03T21:43:37.693Z,-0.26
2023-03-03T21:45:44.330Z,-0.26
2023-03-03T21:47:51.241Z,-0.27
2023-03-03T21:49:57.242Z,-0.27
2023-03-03T21:52:03.858Z,-0.26
2023-03-03T21:54:10.274Z,-0.23
2023-03-03T21:56:16.478Z,-0.22
2023-03-03T21:58:23.111Z,-0.23
2023-03-03T22:00:29.047Z,-0.21
2023-03-03T22:02:34.394Z,-0.17
2023-03-03T22:04:43.587Z,-0.18
2023-03-03T22:06:50.355Z,-0.17
2023-03-03T22:08:56.342Z,-0.15
2023-03-03T22:11:02.257Z,-0.15
2023-03-03T22:13:08.727Z,-0.15
2023-03-03T22:15:15.202Z,-0.15
2023-03-03T22:17:21.376Z,-0.14
2023-03-03T22:19:27.073Z,-0.11
2023-03-03T22:21:33.367Z,-0.08
2023-03-03T22:23:39.146Z,-0.1
2023-03-03T22:25:44.419Z,-0.09
2023-03-03T22:27:51.075Z,-0.06
2023-03-03T22:29:56.392Z,-0.09
2023-03-03T22:32:02.040Z,-0.07
2023-03-03T22:34:09.008Z,-0.08
2023-03-03T22:36:14.389Z,-0.04
2023-03-03T22:38:20.188Z,-0.01
2023-03-03T22:40:25.938Z,-0.03
2023-03-03T22:42:31.517Z,-0.01
2023-03-03T22:44:38.020Z,0
2023-03-03T22:46:45.755Z,0.01
2023-03-03T22:48:51.311Z,-0.03
2023-03-03T22:50:56.973Z,0.02
2023-03-03T22:53:02.252Z,0.03
2023-03-03T22:55:07.832Z,0.04
2023-03-03T22:57:13.606Z,0
2023-03-03T22:59:19.477Z,0.06
2023-03-03T23:01:25.420Z,0.03
2023-03-03T23:03:30.896Z,0.03
2023-03-03T23:05:36.663Z,0.06
2023-03-03T23:07:42.640Z,0.06
2023-03-03T23:09:47.894Z,0.06
2023-03-03T23:11:54.236Z,0.05
2023-03-03T23:13:59.530Z,0.08
2023-03-03T23:16:04.940Z,0.02
2023-03-03T23:18:10.514Z,0.07
2023-03-03T23:20:16.081Z,0.08
2023-03-03T23:22:22.703Z,0.06
2023-03-03T23:24:28.120Z,0.06
2023-03-03T23:26:33.474Z,0.08
2023-03-03T23:28:38.878Z,0.08
2023-03-03T23:30:44.868Z,0.09
2023-03-03T23:32:50.730Z,0.09
2023-03-03T23:34:57.456Z,0.11
2023-03-03T23:37:02.922Z,0.1
2023-03-03T23:39:08.408Z,0.09
2023-03-03T23:41:13.594Z,0.1
2023-03-03T23:43:18.992Z,0.11
2023-03-03T23:45:24.189Z,0.12
2023-03-03T23:47:29.809Z,0.11
2023-03-03T23:49:35.286Z,0.12
2023-03-03T23:51:40.670Z,0.13
2023-03-03T23:53:46.186Z,0.16
2023-03-03T23:55:51.722Z,0.15
2023-03-03T23:57:57.348Z,0.13
